Desert Springs, Nevada Weather observations

Data are for 10 minute period ending at time listed.
 Day   Time    Ave.   Ave.  Ave.  Vector   Max.   Total    Solar   
  of    of     Air    Rel.  Wind   Wind    Wind  Precip.   Rad.    
Year   Day     Temp.  Hum.  Speed  Dir.    Gust                    
2014   (PST)    F      %     mph   deg.    mph     in.     W/m2    
------------------------------------------------------------------- 
 108   13:00   65.0    33    8.0   104     16.0    0.64     896  
 108   14:00   68.0    28    6.0   195     18.0    0.64     998  
 108   15:00   68.0    27    4.0   230     13.0    0.64     848  
 108   16:00   66.0    30    8.0    21     16.0    0.64     448  
 108   17:00   65.0    31   12.0    28     19.0    0.64     280  
 108   18:00   61.0    36    8.0    11     17.0    0.64      97  
 108   19:00   60.0    42   12.0   301     19.0    0.64      17  
 108   20:00   59.0    43    7.0   293     13.0    0.64       0  
 108   21:00   56.0    51   13.0   280     15.0    0.64       0  
 108   22:00   55.0    58   12.0   275     17.0    0.64       0  
 108   23:00   53.0    62    8.0   278     13.0    0.64       0  
 109    0:00   52.0    63    6.0   242     10.0    0.64       0  
 109    1:00   52.0    64    5.0   233      8.0    0.64       0  
 109    2:00   49.0    68    8.0   274     10.0    0.64       0  
 109    3:00   48.0    72    6.0   258     10.0    0.64       0  
 109    4:00   48.0    72    6.0   224      9.0    0.64       0  
 109    5:00   47.0    72    7.0   240     11.0    0.64       0  
 109    6:00   47.0    72    8.0   241     11.0    0.64       5  
 109    7:00   51.0    63    5.0   252      9.0    0.64      91  
 109    8:00   56.0    51    5.0   281     11.0    0.64     153  
 109    9:00   60.0    36    7.0   231     14.0    0.64     538  
 109   10:00   63.0    26   14.0   231     23.0    0.64     657  
 109   11:00   65.0    22   12.0   212     25.0    0.64     846  
 109   12:00   69.0    14   17.0   271     31.0    0.64     973  

Return to Desert Springs, Nevada graphs page.


Western Regional Climate Center,wrcc@dri.edu